Buoy 41997

sailwx.info

Track history (hours):
 
Tides and Currents Weather Stations Pressure Air Temp Water Temp Dewpoint Dewpoint Depression Visibility Wind Speed Wind Dir Waves Ship Positions

Drifting buoy 41997

Last reported at 2015-Mar-06 01:00 UTC. Time now 2015-Mar-06 02:44 UTC.
Position N 27°15' W 044°22'.

Water temperature 21.7 ° C

Date/timePositionNaut miles runAvg speedWind from/ knotsBaromVisibWave heightAir tempDewpointWater temp
2015-Mar-06 01:00N 27°15' W 044°22'1 1.3 21.7
2015-Mar-06 00:15N 27°15' W 044°23'0 0.0 21.8
2015-Mar-06 00:00N 27°15' W 044°23'0 0.0 21.8
2015-Mar-05 23:30N 27°15' W 044°23'2 8.1 21.7
2015-Mar-05 23:15N 27°16' W 044°22'2 0.6 21.7
2015-Mar-05 20:45N 27°18' W 044°21'0 0.0 21.9
2015-Mar-05 20:15N 27°18' W 044°21'0 0.0 21.9
2015-Mar-05 20:00N 27°18' W 044°21'0 0.0 21.9
2015-Mar-05 18:30N 27°18' W 044°21'0 0.0 22.0
2015-Mar-05 18:15N 27°18' W 044°21'2 1.3 22.1
2015-Mar-05 17:00N 27°18' W 044°19'2 1.4 22.3
2015-Mar-05 15:15N 27°20' W 044°17'1 0.3 22.2
2015-Mar-05 13:00N 27°20' W 044°17'1 0.9 22.0
2015-Mar-05 12:00N 27°21' W 044°16'0 0.1 22.0
2015-Mar-05 09:00N 27°21' W 044°16'0 0.0 21.9
2015-Mar-05 08:45N 27°21' W 044°16'0 1.3 21.9
2015-Mar-05 08:30N 27°21' W 044°16'0 1.8 21.8
2015-Mar-05 08:15N 27°21' W 044°16'0 0.6 21.8
2015-Mar-05 07:30N 27°21' W 044°16'0 0.0 21.7
2015-Mar-05 07:15N 27°21' W 044°16'1 5.5 21.8
2015-Mar-05 07:00N 27°23' W 044°16'3 1.9 21.7
2015-Mar-05 05:30N 27°25' W 044°16'0 0.0 21.7
2015-Mar-05 04:00N 27°25' W 044°16'0 0.0 21.8
2015-Mar-05 03:45N 27°25' W 044°16'0 0.0 21.9
2015-Mar-05 01:15N 27°25' W 044°16'0 0.5 21.9
2015-Mar-05 00:30N 27°25' W 044°16'0 0.1 21.9
2015-Mar-04 23:45N 27°25' W 044°16'0 0.0 21.9
2015-Mar-04 23:30N 27°25' W 044°16'1 0.4 21.9
2015-Mar-04 20:45N 27°26' W 044°15'0 0.5 22.3
2015-Mar-04 20:30N 27°26' W 044°15'0 1.8 22.2
2015-Mar-04 20:15N 27°26' W 044°15'0 1.8 22.3
2015-Mar-04 20:00N 27°26' W 044°15'0 0.4 22.5
2015-Mar-04 19:00N 27°26' W 044°15'2 1.2 22.8
2015-Mar-04 17:15N 27°27' W 044°13'0 0.0 22.4
2015-Mar-04 17:00N 27°27' W 044°13'2 0.7 22.3
2015-Mar-04 13:15N 27°30' W 044°14'1 0.8 22.0
2015-Mar-04 12:30N 27°29' W 044°13'0 0.0 22.1
2015-Mar-04 12:15N 27°29' W 044°13'0 0.1 22.1
2015-Mar-04 09:00N 27°29' W 044°13'1 2.4 22.0
2015-Mar-04 08:45N 27°29' W 044°12'0 0.0 22.0
2015-Mar-04 07:45N 27°29' W 044°12'0 0.0 22.0
2015-Mar-04 07:15N 27°29' W 044°12'1 0.5 22.0
2015-Mar-04 05:45N 27°30' W 044°12'0 0.0 22.0
2015-Mar-04 04:15N 27°30' W 044°12'2 6.1 22.0
2015-Mar-04 04:00N 27°29' W 044°11'0 0.0 22.0
2015-Mar-04 00:00N 27°29' W 044°11'0 0.4 22.2
2015-Mar-03 23:15N 27°29' W 044°11'0 0.2 22.2
2015-Mar-03 21:45N 27°29' W 044°11'0 0.5 22.3
2015-Mar-03 21:15N 27°29' W 044°11'0 0.0 22.3
2015-Mar-03 21:00N 27°29' W 044°11'1 1.6 22.3
2015-Mar-03 20:30N 27°28' W 044°11'1 2.5 22.3
2015-Mar-03 20:15N 27°27' W 044°11'2 6.6 22.3
2015-Mar-03 20:00N 27°27' W 044°09'0 0.0 22.3
2015-Mar-03 19:30N 27°27' W 044°09'0 0.0 22.3
2015-Mar-03 19:15N 27°27' W 044°09'0 0.0 22.3
2015-Mar-03 18:45N 27°27' W 044°09'2 1.1 22.4
2015-Mar-03 17:15N 27°26' W 044°08'0 0.0 22.3
2015-Mar-03 15:45N 27°26' W 044°08'0 0.0 22.3
2015-Mar-03 15:30N 27°26' W 044°08'0 0.2 22.2
2015-Mar-03 13:45N 27°25' W 044°08'0 0.0 22.2
2015-Mar-03 12:45N 27°25' W 044°08'0 0.3 22.2
2015-Mar-03 12:00N 27°25' W 044°08'1 1.2 22.2
2015-Mar-03 11:00N 27°25' W 044°06'1 0.6 22.2
2015-Mar-03 10:00N 27°24' W 044°06'0 0.0 22.1
2015-Mar-03 09:45N 27°24' W 044°06'1 2.3 22.1
2015-Mar-03 09:30N 27°25' W 044°06'1 1.9 22.1
2015-Mar-03 09:00N 27°24' W 044°05'0 0.0 22.1
2015-Mar-03 08:00N 27°24' W 044°05'0 0.0 22.1
2015-Mar-03 07:45N 27°24' W 044°05'1 2.5 22.1
2015-Mar-03 07:15N 27°24' W 044°04'2 2.0 22.1
2015-Mar-03 06:00N 27°25' W 044°01'0 0.0 22.1
2015-Mar-03 04:15N 27°25' W 044°01'0 0.0 22.2
2015-Mar-03 00:30N 27°25' W 044°01'0 0.0 22.2
2015-Mar-03 00:15N 27°25' W 044°01'2 1.7 22.2
2015-Mar-02 22:45N 27°24' W 043°59'0 0.0 22.0
2015-Mar-02 20:45N 27°24' W 043°59'2 9.2 21.8
2015-Mar-02 20:30N 27°24' W 043°56'0 0.0 21.8
2015-Mar-02 20:00N 27°24' W 043°56'0 0.0 21.8
2015-Mar-02 19:45N 27°24' W 043°56'0 0.0 21.8
2015-Mar-02 19:00N 27°24' W 043°56'0 0.0 21.9
2015-Mar-02 18:45N 27°24' W 043°56'3 2.5 21.9
2015-Mar-02 17:30N 27°25' W 043°53'3 1.8 21.8
2015-Mar-02 15:45N 27°27' W 043°50'0 0.0 21.8
2015-Mar-02 13:15N 27°27' W 043°50'0 0.0 22.0
2015-Mar-02 13:00N 27°27' W 043°50'0 1.0 22.0
2015-Mar-02 12:30N 27°28' W 043°50'2 2.0 21.8
2015-Mar-02 11:30N 27°28' W 043°48'0 0.0 22.0
2015-Mar-02 11:15N 27°28' W 043°48'0 0.1 22.1
2015-Mar-02 09:15N 27°28' W 043°48'0 0.2 22.1
2015-Mar-02 08:45N 27°28' W 043°48'0 2.0 22.1
2015-Mar-02 08:30N 27°29' W 043°47'1 0.9 22.1
2015-Mar-02 07:30N 27°29' W 043°46'1 0.5 22.1
2015-Mar-02 06:15N 27°29' W 043°46'0 0.0 22.1
2015-Mar-02 06:00N 27°29' W 043°46'0 0.0 22.1
2015-Mar-02 04:30N 27°29' W 043°46'2 7.2 22.1
2015-Mar-02 04:15N 27°30' W 043°44'0 0.0 22.1
2015-Mar-02 00:45N 27°30' W 043°44'1 0.7 22.1
2015-Mar-02 00:00N 27°31' W 043°44'1 2.4 22.1
2015-Mar-01 23:45N 27°31' W 043°44'1 1.2 22.1
2015-Mar-01 23:00N 27°30' W 043°44'0 0.0 22.1
2015-Mar-01 21:00N 27°30' W 043°44'0 0.0 22.2
2015-Mar-01 20:45N 27°30' W 043°44'0 0.0 22.2
2015-Mar-01 20:15N 27°30' W 043°44'1 0.6 22.2
2015-Mar-01 17:45N 27°29' W 043°42'0 0.0 22.2
2015-Mar-01 16:00N 27°29' W 043°42'1 0.3 22.2
2015-Mar-01 13:30N 27°30' W 043°42'0 0.0 22.1
2015-Mar-01 12:45N 27°30' W 043°42'1 0.5 22.1
2015-Mar-01 09:30N 27°29' W 043°40'0 0.2 22.1
2015-Mar-01 09:00N 27°30' W 043°40'0 0.5 22.1
2015-Mar-01 08:45N 27°29' W 043°40'2 1.5 22.1
2015-Mar-01 07:45N 27°29' W 043°38'0 0.0 22.1
2015-Mar-01 07:30N 27°29' W 043°38'0 0.0 22.1
2015-Mar-01 07:15N 27°29' W 043°38'0 0.1 22.1
2015-Mar-01 06:15N 27°29' W 043°38'0 0.1 22.1
2015-Mar-01 04:45N 27°29' W 043°38'2 9.1 22.1
2015-Mar-01 04:30N 27°31' W 043°36'0 0.0 22.1
2015-Mar-01 01:00N 27°31' W 043°36'0 0.0 22.1
2015-Mar-01 00:15N 27°31' W 043°36'0 0.0 22.1
2015-Feb-28 20:45N 27°31' W 043°36'0 0.6 22.1
2015-Feb-28 20:00N 27°30' W 043°36'0 0.0 22.2
2015-Feb-28 19:15N 27°30' W 043°36'2 6.8 22.2
2015-Feb-28 19:00N 27°29' W 043°35'0 0.0 22.2
2015-Feb-28 18:00N 27°29' W 043°35'0 0.0 22.1
2015-Feb-28 17:45N 27°29' W 043°35'1 2.9 22.1
2015-Feb-28 17:30N 27°28' W 043°34'0 0.0 22.1
2015-Feb-28 16:15N 27°28' W 043°34'0 0.0 22.1
2015-Feb-28 16:00N 27°28' W 043°34'2 1.0 22.1
2015-Feb-28 13:45N 27°27' W 043°33'0 0.0 22.1
2015-Feb-28 13:00N 27°27' W 043°33'0 0.2 22.0
2015-Feb-28 12:15N 27°27' W 043°33'2 6.2 22.0
2015-Feb-28 12:00N 27°26' W 043°32'1 0.3 22.0
2015-Feb-28 08:00N 27°25' W 043°32'0 0.0 22.1
2015-Feb-28 07:45N 27°25' W 043°32'0 0.0 22.1
2015-Feb-28 06:30N 27°25' W 043°32'0 0.0 22.1
2015-Feb-28 05:00N 27°25' W 043°32'3 0.7 22.1
2015-Feb-28 01:15N 27°22' W 043°32'0 0.0 22.1
2015-Feb-28 00:30N 27°22' W 043°32'0 0.1 22.1
2015-Feb-27 23:45N 27°22' W 043°32'2 0.6 22.1
2015-Feb-27 20:30N 27°20' W 043°31'2 0.6 22.1
2015-Feb-27 17:45N 27°19' W 043°32'0 0.0 22.1
2015-Feb-27 16:30N 27°19' W 043°32'0 0.0 22.1
2015-Feb-27 16:15N 27°19' W 043°32'2 0.7 22.1
2015-Feb-27 13:30N 27°17' W 043°30'0 0.0 22.1
2015-Feb-27 13:15N 27°17' W 043°30'1 1.6 22.1
2015-Feb-27 12:30N 27°16' W 043°30'0 0.0 22.0
2015-Feb-27 09:45N 27°16' W 043°30'0 0.2 22.2
2015-Feb-27 08:15N 27°16' W 043°30'2 6.2 22.3
2015-Feb-27 08:00N 27°15' W 043°31'3 1.0 22.3
2015-Feb-27 05:00N 27°12' W 043°29'0 0.0 22.3
2015-Feb-27 01:00N 27°12' W 043°29'4 0.6 22.3
2015-Feb-26 18:15N 27°09' W 043°26'0 0.0 22.4
2015-Feb-26 18:00N 27°09' W 043°26'0 0.0 22.4
2015-Feb-26 16:30N 27°09' W 043°26'0 0.0 22.4
2015-Feb-26 14:45N 27°09' W 043°26'2 1.0 22.3
2015-Feb-26 12:45N 27°08' W 043°24'0 0.0 22.3
2015-Feb-26 12:00N 27°08' W 043°24'0 0.0 22.3
2015-Feb-26 08:45N 27°08' W 043°24'1 1.8 22.3
2015-Feb-26 08:15N 27°07' W 043°24'0 0.0 22.3
2015-Feb-26 07:00N 27°07' W 043°24'2 7.1 22.3
2015-Feb-26 06:45N 27°06' W 043°22'0 0.0 22.3
2015-Feb-26 06:30N 27°06' W 043°22'0 0.0 22.3
2015-Feb-26 05:15N 27°06' W 043°22'0 0.0 22.3
2015-Feb-26 05:00N 27°06' W 043°22'0 0.0 22.3
2015-Feb-26 00:30N 27°06' W 043°22'0 0.0 22.4
2015-Feb-26 00:15N 27°06' W 043°22'1 1.2 22.4
2015-Feb-25 23:45N 27°06' W 043°22'1 3.4 22.4
2015-Feb-25 23:30N 27°05' W 043°21'1 0.8 22.4
2015-Feb-25 22:45N 27°05' W 043°21'1 0.6 22.4
2015-Feb-25 21:45N 27°05' W 043°21'2 0.9 22.4
2015-Feb-25 20:00N 27°04' W 043°20'0 0.0 22.5
2015-Feb-25 19:45N 27°04' W 043°20'0 0.0 22.5
2015-Feb-25 18:30N 27°04' W 043°20'1 4.3 22.5
2015-Feb-25 18:15N 27°04' W 043°19'1 4.3 22.5
2015-Feb-25 18:00N 27°04' W 043°20'1 0.9 22.5
2015-Feb-25 16:45N 27°04' W 043°19'1 0.7 22.5
2015-Feb-25 15:00N 27°03' W 043°19'2 0.8 22.4
2015-Feb-25 12:15N 27°01' W 043°17'0 0.0 22.3
2015-Feb-25 11:30N 27°01' W 043°17'1 0.3 22.3
2015-Feb-25 09:00N 27°01' W 043°16'0 0.0 22.3
2015-Feb-25 07:45N 27°01' W 043°16'0 1.3 22.3
2015-Feb-25 07:30N 27°01' W 043°16'0 0.0 22.3
2015-Feb-25 07:15N 27°01' W 043°16'1 2.2 22.3
2015-Feb-25 07:00N 27°01' W 043°15'1 3.1 22.2
2015-Feb-25 06:45N 27°01' W 043°15'0 0.0 22.2
2015-Feb-25 05:30N 27°01' W 043°15'0 0.0 22.2
2015-Feb-25 05:15N 27°01' W 043°15'2 1.4 22.1
2015-Feb-25 03:45N 26°60' W 043°13'0 0.0 22.1
2015-Feb-25 00:45N 26°60' W 043°13'2 3.1 22.1
2015-Feb-25 00:00N 26°59' W 043°10'0 0.0 22.1
2015-Feb-24 23:15N 26°59' W 043°10'0 0.0 22.2
2015-Feb-24 23:00N 26°59' W 043°10'0 0.1 22.1
2015-Feb-24 20:45N 26°59' W 043°10'0 0.0 22.2
2015-Feb-24 20:30N 26°59' W 043°10'1 2.2 22.2
2015-Feb-24 20:00N 26°58' W 043°11'1 0.6 22.2
2015-Feb-24 19:00N 26°59' W 043°12'2 1.2 22.2
2015-Feb-24 17:00N 26°58' W 043°09'0 0.0 22.1
2015-Feb-24 16:45N 26°58' W 043°09'1 0.6 22.1
2015-Feb-24 15:15N 26°57' W 043°09'1 0.7 22.1
2015-Feb-24 13:30N 26°57' W 043°08'0 0.4 22.0
2015-Feb-24 12:45N 26°57' W 043°07'0 0.0 21.9
2015-Feb-24 12:30N 26°57' W 043°07'0 0.0 21.9
2015-Feb-24 12:00N 26°57' W 043°07'1 4.0 21.9
2015-Feb-24 11:45N 26°57' W 043°06'0 0.0 21.9
2015-Feb-24 09:45N 26°57' W 043°06'0 1.7 21.8
2015-Feb-24 09:30N 26°56' W 043°06'1 1.7 21.8
2015-Feb-24 08:45N 26°56' W 043°05'1 1.5 21.8
2015-Feb-24 08:15N 26°56' W 043°05'1 1.5 21.8
2015-Feb-24 07:45N 26°56' W 043°05'4 5.0 21.8
2015-Feb-24 07:00N 26°54' W 043°01'0 0.0 21.9
2015-Feb-24 05:30N 26°54' W 043°01'0 0.0 21.9
2015-Feb-24 04:00N 26°54' W 043°01'1 0.3 21.9
2015-Feb-24 01:00N 26°54' W 043°00'   21.9
Track history (hours):
 
Tides and Currents Weather Stations Pressure Air Temp Water Temp Dewpoint Dewpoint Depression Visibility Wind Speed Wind Dir Waves Ship Positions

Drifting buoy 41997

Last reported at 2015-Mar-06 01:00 UTC. Time now 2015-Mar-06 02:44 UTC.
Position N 27°15' W 044°22'.

Water temperature 21.7 ° C

Date/timePositionNaut miles runAvg speedWind from/ knotsBaromVisibWave heightAir tempDewpointWater temp
2015-Mar-06 01:00N 27°15' W 044°22'1 1.3 21.7
2015-Mar-06 00:15N 27°15' W 044°23'0 0.0 21.8
2015-Mar-06 00:00N 27°15' W 044°23'0 0.0 21.8
2015-Mar-05 23:30N 27°15' W 044°23'2 8.1 21.7
2015-Mar-05 23:15N 27°16' W 044°22'2 0.6 21.7
2015-Mar-05 20:45N 27°18' W 044°21'0 0.0 21.9
2015-Mar-05 20:15N 27°18' W 044°21'0 0.0 21.9
2015-Mar-05 20:00N 27°18' W 044°21'0 0.0 21.9
2015-Mar-05 18:30N 27°18' W 044°21'0 0.0 22.0
2015-Mar-05 18:15N 27°18' W 044°21'2 1.3 22.1
2015-Mar-05 17:00N 27°18' W 044°19'2 1.4 22.3
2015-Mar-05 15:15N 27°20' W 044°17'1 0.3 22.2
2015-Mar-05 13:00N 27°20' W 044°17'1 0.9 22.0
2015-Mar-05 12:00N 27°21' W 044°16'0 0.1 22.0
2015-Mar-05 09:00N 27°21' W 044°16'0 0.0 21.9
2015-Mar-05 08:45N 27°21' W 044°16'0 1.3 21.9
2015-Mar-05 08:30N 27°21' W 044°16'0 1.8 21.8
2015-Mar-05 08:15N 27°21' W 044°16'0 0.6 21.8
2015-Mar-05 07:30N 27°21' W 044°16'0 0.0 21.7
2015-Mar-05 07:15N 27°21' W 044°16'1 5.5 21.8
2015-Mar-05 07:00N 27°23' W 044°16'3 1.9 21.7
2015-Mar-05 05:30N 27°25' W 044°16'0 0.0 21.7
2015-Mar-05 04:00N 27°25' W 044°16'0 0.0 21.8
2015-Mar-05 03:45N 27°25' W 044°16'0 0.0 21.9
2015-Mar-05 01:15N 27°25' W 044°16'0 0.5 21.9
2015-Mar-05 00:30N 27°25' W 044°16'0 0.1 21.9
2015-Mar-04 23:45N 27°25' W 044°16'0 0.0 21.9
2015-Mar-04 23:30N 27°25' W 044°16'1 0.4 21.9
2015-Mar-04 20:45N 27°26' W 044°15'0 0.5 22.3
2015-Mar-04 20:30N 27°26' W 044°15'0 1.8 22.2
2015-Mar-04 20:15N 27°26' W 044°15'0 1.8 22.3
2015-Mar-04 20:00N 27°26' W 044°15'0 0.4 22.5
2015-Mar-04 19:00N 27°26' W 044°15'2 1.2 22.8
2015-Mar-04 17:15N 27°27' W 044°13'0 0.0 22.4
2015-Mar-04 17:00N 27°27' W 044°13'2 0.7 22.3
2015-Mar-04 13:15N 27°30' W 044°14'1 0.8 22.0
2015-Mar-04 12:30N 27°29' W 044°13'0 0.0 22.1
2015-Mar-04 12:15N 27°29' W 044°13'0 0.1 22.1
2015-Mar-04 09:00N 27°29' W 044°13'1 2.4 22.0
2015-Mar-04 08:45N 27°29' W 044°12'0 0.0 22.0
2015-Mar-04 07:45N 27°29' W 044°12'0 0.0 22.0
2015-Mar-04 07:15N 27°29' W 044°12'1 0.5 22.0
2015-Mar-04 05:45N 27°30' W 044°12'0 0.0 22.0
2015-Mar-04 04:15N 27°30' W 044°12'2 6.1 22.0
2015-Mar-04 04:00N 27°29' W 044°11'0 0.0 22.0
2015-Mar-04 00:00N 27°29' W 044°11'0 0.4 22.2
2015-Mar-03 23:15N 27°29' W 044°11'0 0.2 22.2
2015-Mar-03 21:45N 27°29' W 044°11'0 0.5 22.3
2015-Mar-03 21:15N 27°29' W 044°11'0 0.0 22.3
2015-Mar-03 21:00N 27°29' W 044°11'1 1.6 22.3
2015-Mar-03 20:30N 27°28' W 044°11'1 2.5 22.3
2015-Mar-03 20:15N 27°27' W 044°11'2 6.6 22.3
2015-Mar-03 20:00N 27°27' W 044°09'0 0.0 22.3
2015-Mar-03 19:30N 27°27' W 044°09'0 0.0 22.3
2015-Mar-03 19:15N 27°27' W 044°09'0 0.0 22.3
2015-Mar-03 18:45N 27°27' W 044°09'2 1.1 22.4
2015-Mar-03 17:15N 27°26' W 044°08'0 0.0 22.3
2015-Mar-03 15:45N 27°26' W 044°08'0 0.0 22.3
2015-Mar-03 15:30N 27°26' W 044°08'0 0.2 22.2
2015-Mar-03 13:45N 27°25' W 044°08'0 0.0 22.2
2015-Mar-03 12:45N 27°25' W 044°08'0 0.3 22.2
2015-Mar-03 12:00N 27°25' W 044°08'1 1.2 22.2
2015-Mar-03 11:00N 27°25' W 044°06'1 0.6 22.2
2015-Mar-03 10:00N 27°24' W 044°06'0 0.0 22.1
2015-Mar-03 09:45N 27°24' W 044°06'1 2.3 22.1
2015-Mar-03 09:30N 27°25' W 044°06'1 1.9 22.1
2015-Mar-03 09:00N 27°24' W 044°05'0 0.0 22.1
2015-Mar-03 08:00N 27°24' W 044°05'0 0.0 22.1
2015-Mar-03 07:45N 27°24' W 044°05'1 2.5 22.1
2015-Mar-03 07:15N 27°24' W 044°04'2 2.0 22.1
2015-Mar-03 06:00N 27°25' W 044°01'0 0.0 22.1
2015-Mar-03 04:15N 27°25' W 044°01'0 0.0 22.2
2015-Mar-03 00:30N 27°25' W 044°01'0 0.0 22.2
2015-Mar-03 00:15N 27°25' W 044°01'2 1.7 22.2
2015-Mar-02 22:45N 27°24' W 043°59'0 0.0 22.0
2015-Mar-02 20:45N 27°24' W 043°59'2 9.2 21.8
2015-Mar-02 20:30N 27°24' W 043°56'0 0.0 21.8
2015-Mar-02 20:00N 27°24' W 043°56'0 0.0 21.8
2015-Mar-02 19:45N 27°24' W 043°56'0 0.0 21.8
2015-Mar-02 19:00N 27°24' W 043°56'0 0.0 21.9
2015-Mar-02 18:45N 27°24' W 043°56'3 2.5 21.9
2015-Mar-02 17:30N 27°25' W 043°53'3 1.8 21.8
2015-Mar-02 15:45N 27°27' W 043°50'0 0.0 21.8
2015-Mar-02 13:15N 27°27' W 043°50'0 0.0 22.0
2015-Mar-02 13:00N 27°27' W 043°50'0 1.0 22.0
2015-Mar-02 12:30N 27°28' W 043°50'2 2.0 21.8
2015-Mar-02 11:30N 27°28' W 043°48'0 0.0 22.0
2015-Mar-02 11:15N 27°28' W 043°48'0 0.1 22.1
2015-Mar-02 09:15N 27°28' W 043°48'0 0.2 22.1
2015-Mar-02 08:45N 27°28' W 043°48'0 2.0 22.1
2015-Mar-02 08:30N 27°29' W 043°47'1 0.9 22.1
2015-Mar-02 07:30N 27°29' W 043°46'1 0.5 22.1
2015-Mar-02 06:15N 27°29' W 043°46'0 0.0 22.1
2015-Mar-02 06:00N 27°29' W 043°46'0 0.0 22.1
2015-Mar-02 04:30N 27°29' W 043°46'2 7.2 22.1
2015-Mar-02 04:15N 27°30' W 043°44'0 0.0 22.1
2015-Mar-02 00:45N 27°30' W 043°44'1 0.7 22.1
2015-Mar-02 00:00N 27°31' W 043°44'1 2.4 22.1
2015-Mar-01 23:45N 27°31' W 043°44'1 1.2 22.1
2015-Mar-01 23:00N 27°30' W 043°44'0 0.0 22.1
2015-Mar-01 21:00N 27°30' W 043°44'0 0.0 22.2
2015-Mar-01 20:45N 27°30' W 043°44'0 0.0 22.2
2015-Mar-01 20:15N 27°30' W 043°44'1 0.6 22.2
2015-Mar-01 17:45N 27°29' W 043°42'0 0.0 22.2
2015-Mar-01 16:00N 27°29' W 043°42'1 0.3 22.2
2015-Mar-01 13:30N 27°30' W 043°42'0 0.0 22.1
2015-Mar-01 12:45N 27°30' W 043°42'1 0.5 22.1
2015-Mar-01 09:30N 27°29' W 043°40'0 0.2 22.1
2015-Mar-01 09:00N 27°30' W 043°40'0 0.5 22.1
2015-Mar-01 08:45N 27°29' W 043°40'2 1.5 22.1
2015-Mar-01 07:45N 27°29' W 043°38'0 0.0 22.1
2015-Mar-01 07:30N 27°29' W 043°38'0 0.0 22.1
2015-Mar-01 07:15N 27°29' W 043°38'0 0.1 22.1
2015-Mar-01 06:15N 27°29' W 043°38'0 0.1 22.1
2015-Mar-01 04:45N 27°29' W 043°38'2 9.1 22.1
2015-Mar-01 04:30N 27°31' W 043°36'0 0.0 22.1
2015-Mar-01 01:00N 27°31' W 043°36'0 0.0 22.1
2015-Mar-01 00:15N 27°31' W 043°36'0 0.0 22.1
2015-Feb-28 20:45N 27°31' W 043°36'0 0.6 22.1
2015-Feb-28 20:00N 27°30' W 043°36'0 0.0 22.2
2015-Feb-28 19:15N 27°30' W 043°36'2 6.8 22.2
2015-Feb-28 19:00N 27°29' W 043°35'0 0.0 22.2
2015-Feb-28 18:00N 27°29' W 043°35'0 0.0 22.1
2015-Feb-28 17:45N 27°29' W 043°35'1 2.9 22.1
2015-Feb-28 17:30N 27°28' W 043°34'0 0.0 22.1
2015-Feb-28 16:15N 27°28' W 043°34'0 0.0 22.1
2015-Feb-28 16:00N 27°28' W 043°34'2 1.0 22.1
2015-Feb-28 13:45N 27°27' W 043°33'0 0.0 22.1
2015-Feb-28 13:00N 27°27' W 043°33'0 0.2 22.0
2015-Feb-28 12:15N 27°27' W 043°33'2 6.2 22.0
2015-Feb-28 12:00N 27°26' W 043°32'1 0.3 22.0
2015-Feb-28 08:00N 27°25' W 043°32'0 0.0 22.1
2015-Feb-28 07:45N 27°25' W 043°32'0 0.0 22.1
2015-Feb-28 06:30N 27°25' W 043°32'0 0.0 22.1
2015-Feb-28 05:00N 27°25' W 043°32'3 0.7 22.1
2015-Feb-28 01:15N 27°22' W 043°32'0 0.0 22.1
2015-Feb-28 00:30N 27°22' W 043°32'0 0.1 22.1
2015-Feb-27 23:45N 27°22' W 043°32'2 0.6 22.1
2015-Feb-27 20:30N 27°20' W 043°31'2 0.6 22.1
2015-Feb-27 17:45N 27°19' W 043°32'0 0.0 22.1
2015-Feb-27 16:30N 27°19' W 043°32'0 0.0 22.1
2015-Feb-27 16:15N 27°19' W 043°32'2 0.7 22.1
2015-Feb-27 13:30N 27°17' W 043°30'0 0.0 22.1
2015-Feb-27 13:15N 27°17' W 043°30'1 1.6 22.1
2015-Feb-27 12:30N 27°16' W 043°30'0 0.0 22.0
2015-Feb-27 09:45N 27°16' W 043°30'0 0.2 22.2
2015-Feb-27 08:15N 27°16' W 043°30'2 6.2 22.3
2015-Feb-27 08:00N 27°15' W 043°31'3 1.0 22.3
2015-Feb-27 05:00N 27°12' W 043°29'0 0.0 22.3
2015-Feb-27 01:00N 27°12' W 043°29'4 0.6 22.3
2015-Feb-26 18:15N 27°09' W 043°26'0 0.0 22.4
2015-Feb-26 18:00N 27°09' W 043°26'0 0.0 22.4
2015-Feb-26 16:30N 27°09' W 043°26'0 0.0 22.4
2015-Feb-26 14:45N 27°09' W 043°26'2 1.0 22.3
2015-Feb-26 12:45N 27°08' W 043°24'0 0.0 22.3
2015-Feb-26 12:00N 27°08' W 043°24'0 0.0 22.3
2015-Feb-26 08:45N 27°08' W 043°24'1 1.8 22.3
2015-Feb-26 08:15N 27°07' W 043°24'0 0.0 22.3
2015-Feb-26 07:00N 27°07' W 043°24'2 7.1 22.3
2015-Feb-26 06:45N 27°06' W 043°22'0 0.0 22.3
2015-Feb-26 06:30N 27°06' W 043°22'0 0.0 22.3
2015-Feb-26 05:15N 27°06' W 043°22'0 0.0 22.3
2015-Feb-26 05:00N 27°06' W 043°22'0 0.0 22.3
2015-Feb-26 00:30N 27°06' W 043°22'0 0.0 22.4
2015-Feb-26 00:15N 27°06' W 043°22'1 1.2 22.4
2015-Feb-25 23:45N 27°06' W 043°22'1 3.4 22.4
2015-Feb-25 23:30N 27°05' W 043°21'1 0.8 22.4
2015-Feb-25 22:45N 27°05' W 043°21'1 0.6 22.4
2015-Feb-25 21:45N 27°05' W 043°21'2 0.9 22.4
2015-Feb-25 20:00N 27°04' W 043°20'0 0.0 22.5
2015-Feb-25 19:45N 27°04' W 043°20'0 0.0 22.5
2015-Feb-25 18:30N 27°04' W 043°20'1 4.3 22.5
2015-Feb-25 18:15N 27°04' W 043°19'1 4.3 22.5
2015-Feb-25 18:00N 27°04' W 043°20'1 0.9 22.5
2015-Feb-25 16:45N 27°04' W 043°19'1 0.7 22.5
2015-Feb-25 15:00N 27°03' W 043°19'2 0.8 22.4
2015-Feb-25 12:15N 27°01' W 043°17'0 0.0 22.3
2015-Feb-25 11:30N 27°01' W 043°17'1 0.3 22.3
2015-Feb-25 09:00N 27°01' W 043°16'0 0.0 22.3
2015-Feb-25 07:45N 27°01' W 043°16'0 1.3 22.3
2015-Feb-25 07:30N 27°01' W 043°16'0 0.0 22.3
2015-Feb-25 07:15N 27°01' W 043°16'1 2.2 22.3
2015-Feb-25 07:00N 27°01' W 043°15'1 3.1 22.2
2015-Feb-25 06:45N 27°01' W 043°15'0 0.0 22.2
2015-Feb-25 05:30N 27°01' W 043°15'0 0.0 22.2
2015-Feb-25 05:15N 27°01' W 043°15'2 1.4 22.1
2015-Feb-25 03:45N 26°60' W 043°13'0 0.0 22.1
2015-Feb-25 00:45N 26°60' W 043°13'2 3.1 22.1
2015-Feb-25 00:00N 26°59' W 043°10'0 0.0 22.1
2015-Feb-24 23:15N 26°59' W 043°10'0 0.0 22.2
2015-Feb-24 23:00N 26°59' W 043°10'0 0.1 22.1
2015-Feb-24 20:45N 26°59' W 043°10'0 0.0 22.2
2015-Feb-24 20:30N 26°59' W 043°10'1 2.2 22.2
2015-Feb-24 20:00N 26°58' W 043°11'1 0.6 22.2
2015-Feb-24 19:00N 26°59' W 043°12'2 1.2 22.2
2015-Feb-24 17:00N 26°58' W 043°09'0 0.0 22.1
2015-Feb-24 16:45N 26°58' W 043°09'1 0.6 22.1
2015-Feb-24 15:15N 26°57' W 043°09'1 0.7 22.1
2015-Feb-24 13:30N 26°57' W 043°08'0 0.4 22.0
2015-Feb-24 12:45N 26°57' W 043°07'0 0.0 21.9
2015-Feb-24 12:30N 26°57' W 043°07'0 0.0 21.9
2015-Feb-24 12:00N 26°57' W 043°07'1 4.0 21.9
2015-Feb-24 11:45N 26°57' W 043°06'0 0.0 21.9
2015-Feb-24 09:45N 26°57' W 043°06'0 1.7 21.8
2015-Feb-24 09:30N 26°56' W 043°06'1 1.7 21.8
2015-Feb-24 08:45N 26°56' W 043°05'1 1.5 21.8
2015-Feb-24 08:15N 26°56' W 043°05'1 1.5 21.8
2015-Feb-24 07:45N 26°56' W 043°05'4 5.0 21.8
2015-Feb-24 07:00N 26°54' W 043°01'0 0.0 21.9
2015-Feb-24 05:30N 26°54' W 043°01'0 0.0 21.9
2015-Feb-24 04:00N 26°54' W 043°01'1 0.3 21.9
2015-Feb-24 01:00N 26°54' W 043°00'   21.9

Dump ship's entire track history